createdAt,value
2019-06-26T00:00:50.979Z,68.09
2019-06-26T00:03:19.510Z,67.71
2019-06-26T00:05:46.534Z,67.89
2019-06-26T00:08:16.776Z,68.26
2019-06-26T00:10:43.955Z,68.64
2019-06-26T00:13:26.101Z,69.12
2019-06-26T00:15:50.640Z,68.52
2019-06-26T00:18:17.714Z,67.72
2019-06-26T00:20:44.986Z,69.11
2019-06-26T00:23:13.228Z,69.59
2019-06-26T00:25:40.296Z,69.99
2019-06-26T00:28:07.433Z,69.48
2019-06-26T00:30:35.710Z,70.26
2019-06-26T00:33:02.789Z,69.60
2019-06-26T00:35:30.218Z,69.43
2019-06-26T00:37:57.565Z,69.74
2019-06-26T00:40:24.613Z,69.91
2019-06-26T00:42:51.681Z,68.27
2019-06-26T00:45:18.763Z,68.96
2019-06-26T00:47:45.774Z,69.79
2019-06-26T00:50:13.201Z,69.30
2019-06-26T00:52:40.666Z,69.72
2019-06-26T00:55:09.354Z,69.21
2019-06-26T00:57:36.386Z,68.73
2019-06-26T01:00:08.304Z,68.60
2019-06-26T01:02:36.657Z,69.21
2019-06-26T01:05:06.479Z,68.66
2019-06-26T01:07:33.557Z,67.99
2019-06-26T01:10:00.627Z,67.44
2019-06-26T01:12:27.666Z,68.19
2019-06-26T01:14:55.946Z,67.95
2019-06-26T01:17:23.593Z,67.84
2019-06-26T01:19:50.632Z,68.42
2019-06-26T01:22:21.009Z,68.99
2019-06-26T01:24:48.054Z,68.80
2019-06-26T01:27:15.399Z,68.40
2019-06-26T01:29:52.743Z,68.24
2019-06-26T01:32:27.601Z,67.94
2019-06-26T01:35:12.283Z,67.63
2019-06-26T01:37:39.729Z,67.35
2019-06-26T01:40:07.548Z,67.68
2019-06-26T01:42:34.653Z,67.43
2019-06-26T01:45:01.681Z,67.79
2019-06-26T01:47:29.900Z,67.36
2019-06-26T01:49:56.985Z,67.07
2019-06-26T01:52:24.013Z,67.67
2019-06-26T01:54:51.321Z,69.11
2019-06-26T01:57:18.389Z,70.03
2019-06-26T01:59:48.882Z,70.03
2019-06-26T02:02:16.490Z,69.12
2019-06-26T02:04:43.540Z,68.55
2019-06-26T02:07:10.560Z,68.19
2019-06-26T02:09:37.631Z,68.29
2019-06-26T02:12:04.717Z,69.23
2019-06-26T02:14:32.102Z,71.37
2019-06-26T02:16:59.196Z,74.13
2019-06-26T02:19:27.373Z,74.87
2019-06-26T02:21:55.782Z,76.05
2019-06-26T02:24:23.006Z,76.78
2019-06-26T02:27:00.666Z,77.10
2019-06-26T02:29:29.129Z,78.33
2019-06-26T02:31:56.166Z,78.53
2019-06-26T02:34:27.780Z,79.62
2019-06-26T02:36:55.209Z,79.57
2019-06-26T02:39:22.241Z,78.17
2019-06-26T02:41:49.291Z,74.88
2019-06-26T02:44:16.333Z,73.27
2019-06-26T02:46:43.371Z,73.94
2019-06-26T02:49:10.608Z,73.65
2019-06-26T02:51:37.643Z,73.77
2019-06-26T02:54:04.659Z,72.57
2019-06-26T02:56:31.713Z,72.10
2019-06-26T02:59:04.203Z,72.95
2019-06-26T03:01:36.616Z,71.84
2019-06-26T03:04:05.955Z,71.88
2019-06-26T03:06:32.960Z,73.47
2019-06-26T03:09:08.631Z,73.38
2019-06-26T03:11:36.883Z,73.60
2019-06-26T03:14:03.926Z,73.62
2019-06-26T03:16:34.266Z,72.65
2019-06-26T03:19:01.284Z,72.80
2019-06-26T03:21:28.360Z,72.66
2019-06-26T03:24:19.085Z,72.93
2019-06-26T03:27:21.842Z,72.53
2019-06-26T03:29:50.195Z,72.17
2019-06-26T03:32:17.270Z,71.78
2019-06-26T03:34:44.414Z,71.61
2019-06-26T03:37:14.607Z,71.50
2019-06-26T03:39:41.638Z,70.93
2019-06-26T03:42:08.807Z,71.55
2019-06-26T03:44:47.007Z,71.07
2019-06-26T03:47:21.503Z,70.40
2019-06-26T03:50:09.741Z,69.59
2019-06-26T03:52:47.614Z,70.59
2019-06-26T03:55:24.580Z,70.32
2019-06-26T03:57:57.192Z,69.95
2019-06-26T04:00:53.285Z,69.58
2019-06-26T04:03:37.162Z,68.77
2019-06-26T04:06:08.732Z,67.60
2019-06-26T04:08:53.315Z,66.57
2019-06-26T04:11:23.443Z,65.91
2019-06-26T04:13:50.507Z,64.91
2019-06-26T04:16:20.919Z,64.12
2019-06-26T04:18:48.014Z,63.83
2019-06-26T04:21:15.442Z,63.58
2019-06-26T04:23:43.628Z,62.48
2019-06-26T04:26:10.720Z,61.42
2019-06-26T04:28:37.845Z,60.35
2019-06-26T04:31:04.928Z,60.00
2019-06-26T04:33:33.887Z,58.76
2019-06-26T04:36:02.282Z,57.80
2019-06-26T04:38:29.643Z,57.01
2019-06-26T04:41:10.659Z,56.68
2019-06-26T04:43:47.087Z,56.02
2019-06-26T04:46:21.611Z,55.25
2019-06-26T04:48:57.180Z,54.17
2019-06-26T04:51:32.369Z,53.90
2019-06-26T04:54:10.767Z,52.65
2019-06-26T04:56:47.248Z,51.61
2019-06-26T05:02:35.833Z,50.13
2019-06-26T05:05:38.468Z,49.80
2019-06-26T05:07:58.536Z,48.92
2019-06-26T05:10:29.232Z,47.70
2019-06-26T05:12:56.701Z,46.67
2019-06-26T05:15:24.140Z,46.40
2019-06-26T05:18:36.670Z,45.59
2019-06-26T05:21:10.858Z,45.11
2019-06-26T05:24:11.880Z,45.50
2019-06-26T05:26:51.492Z,46.60
2019-06-26T05:29:19.613Z,46.09
2019-06-26T05:31:47.931Z,45.76
2019-06-26T05:34:22.705Z,43.85
2019-06-26T05:36:58.178Z,43.60
2019-06-26T05:39:45.249Z,43.56
2019-06-26T05:42:16.654Z,41.65
2019-06-26T05:44:45.009Z,40.78
2019-06-26T05:47:15.750Z,39.41
2019-06-26T05:49:49.523Z,39.26
2019-06-26T05:52:31.082Z,41.33
2019-06-26T05:55:03.838Z,46.77
2019-06-26T05:57:37.412Z,46.54
2019-06-26T06:00:16.910Z,45.78
2019-06-26T06:02:47.785Z,47.02
2019-06-26T06:05:27.433Z,49.35
2019-06-26T06:08:06.486Z,48.46
2019-06-26T06:10:44.300Z,45.14
2019-06-26T06:13:19.112Z,42.81
2019-06-26T06:15:54.980Z,40.93
2019-06-26T06:18:22.421Z,41.33
2019-06-26T06:20:50.773Z,39.92
2019-06-26T06:23:17.890Z,39.00
2019-06-26T06:25:47.470Z,40.15
2019-06-26T06:28:14.763Z,40.11
2019-06-26T06:30:48.018Z,42.77
2019-06-26T06:33:16.883Z,44.78
2019-06-26T06:35:45.932Z,40.79
2019-06-26T06:38:13.008Z,38.76
2019-06-26T06:44:34.020Z,35.76
2019-06-26T06:47:04.558Z,37.04
2019-06-26T06:49:31.702Z,38.33
2019-06-26T06:52:00.679Z,41.33
2019-06-26T06:54:31.420Z,41.08
2019-06-26T06:56:58.579Z,37.64
2019-06-26T06:59:25.940Z,36.93
2019-06-26T07:01:58.322Z,38.58
2019-06-26T07:04:26.276Z,39.25
2019-06-26T07:06:58.814Z,38.40
2019-06-26T07:09:32.416Z,35.92
2019-06-26T07:12:01.721Z,34.70
2019-06-26T07:15:03.185Z,41.45
2019-06-26T07:17:44.759Z,41.47
2019-06-26T07:20:12.038Z,38.30
2019-06-26T07:22:39.103Z,34.98
2019-06-26T07:25:13.466Z,32.51
2019-06-26T07:28:23.559Z,30.65
2019-06-26T07:30:58.270Z,30.30
2019-06-26T07:33:27.747Z,29.90
2019-06-26T07:36:08.129Z,28.18
2019-06-26T07:38:48.225Z,27.42
2019-06-26T07:41:23.641Z,25.99
2019-06-26T07:43:55.276Z,25.44
2019-06-26T07:46:23.104Z,25.95
2019-06-26T07:48:57.779Z,26.30
2019-06-26T07:55:12.490Z,27.99
2019-06-26T07:57:41.332Z,27.35
2019-06-26T08:00:16.931Z,25.84
2019-06-26T08:02:46.553Z,26.71
2019-06-26T08:05:32.915Z,25.00
2019-06-26T08:08:02.250Z,24.97
2019-06-26T08:10:33.757Z,29.35
2019-06-26T08:13:00.930Z,30.96
2019-06-26T08:15:28.020Z,30.46
2019-06-26T08:18:00.691Z,32.09
2019-06-26T08:20:25.695Z,30.34
2019-06-26T08:22:53.973Z,28.39
2019-06-26T08:25:22.267Z,28.47
2019-06-26T08:27:49.379Z,31.80
2019-06-26T08:30:16.920Z,32.40
2019-06-26T08:32:44.809Z,37.38
2019-06-26T08:35:12.336Z,36.87
2019-06-26T08:37:39.507Z,33.14
2019-06-26T08:40:07.385Z,30.91
2019-06-26T08:42:34.673Z,32.40
2019-06-26T08:45:01.948Z,31.51
2019-06-26T08:47:30.227Z,32.05
2019-06-26T08:50:01.387Z,28.70
2019-06-26T08:52:33.871Z,26.07
2019-06-26T08:55:01.091Z,24.85
2019-06-26T08:57:28.136Z,22.22
2019-06-26T08:59:55.675Z,22.99
2019-06-26T09:02:22.779Z,24.89
2019-06-26T09:04:49.985Z,23.45
2019-06-26T09:07:17.054Z,25.76
2019-06-26T09:09:44.524Z,30.18
2019-06-26T09:12:11.563Z,28.71
2019-06-26T09:14:38.983Z,27.73
2019-06-26T09:17:06.116Z,27.03
2019-06-26T09:19:34.452Z,30.25
2019-06-26T09:22:01.582Z,33.64
2019-06-26T09:24:28.697Z,35.14
2019-06-26T09:26:55.713Z,31.83
2019-06-26T09:29:24.143Z,29.18
2019-06-26T09:31:51.361Z,27.69
2019-06-26T09:34:18.527Z,27.86
2019-06-26T09:36:45.610Z,27.84
2019-06-26T09:39:18.433Z,28.76
2019-06-26T09:41:46.582Z,28.84
2019-06-26T09:44:15.918Z,29.70
2019-06-26T09:46:44.810Z,30.62
2019-06-26T09:49:11.999Z,32.92
2019-06-26T09:51:39.256Z,32.72
2019-06-26T09:54:07.611Z,31.52
2019-06-26T09:56:34.628Z,31.66
2019-06-26T09:59:01.685Z,33.04
2019-06-26T10:01:28.975Z,31.80
2019-06-26T10:03:56.019Z,31.87
2019-06-26T10:06:23.190Z,31.04
2019-06-26T10:08:54.073Z,30.16
2019-06-26T10:11:21.668Z,28.37
2019-06-26T10:13:48.710Z,31.64
2019-06-26T10:16:17.595Z,31.70
2019-06-26T10:18:45.022Z,30.01
2019-06-26T10:21:12.129Z,29.56
2019-06-26T10:23:39.236Z,29.29
2019-06-26T10:26:06.299Z,29.12
2019-06-26T10:28:33.321Z,29.47
2019-06-26T10:31:00.512Z,28.04
2019-06-26T10:33:29.097Z,27.21
2019-06-26T10:35:57.240Z,27.10
2019-06-26T10:38:30.926Z,26.58
2019-06-26T10:40:59.506Z,28.01
2019-06-26T10:43:26.586Z,28.52
2019-06-26T10:45:53.654Z,27.57
2019-06-26T10:48:20.677Z,26.25
2019-06-26T10:50:52.032Z,26.28
2019-06-26T10:53:16.855Z,26.04
2019-06-26T10:55:43.938Z,25.73
2019-06-26T10:58:10.949Z,24.62
2019-06-26T11:00:39.406Z,25.41
2019-06-26T11:03:07.291Z,25.86
2019-06-26T11:05:36.267Z,24.65
2019-06-26T11:08:09.718Z,25.00
2019-06-26T11:10:38.664Z,24.73
2019-06-26T11:13:09.944Z,24.47
2019-06-26T11:15:40.231Z,26.16
2019-06-26T11:18:09.550Z,25.60
2019-06-26T11:20:36.948Z,24.32
2019-06-26T11:23:05.833Z,22.54
2019-06-26T11:25:32.903Z,20.92
2019-06-26T11:28:14.663Z,18.30
2019-06-26T11:30:51.939Z,15.85
2019-06-26T11:33:20.963Z,15.24
2019-06-26T11:36:08.369Z,14.17
2019-06-26T11:38:35.575Z,13.42
2019-06-26T11:41:02.660Z,15.28
2019-06-26T11:43:30.179Z,15.09
2019-06-26T11:45:57.340Z,14.79
2019-06-26T11:48:26.239Z,14.87
2019-06-26T11:50:58.901Z,16.55
2019-06-26T11:53:26.002Z,15.52
2019-06-26T11:55:53.384Z,13.63
2019-06-26T11:58:20.528Z,12.64
2019-06-26T12:00:48.978Z,12.25
2019-06-26T12:03:16.197Z,11.23
2019-06-26T12:05:43.301Z,10.51
2019-06-26T12:08:10.706Z,14.63
2019-06-26T12:10:37.987Z,14.23
2019-06-26T12:13:05.140Z,12.49
2019-06-26T12:15:32.223Z,10.90
2019-06-26T12:18:01.737Z,12.13
2019-06-26T12:20:28.977Z,10.98
2019-06-26T12:22:57.846Z,10.53
2019-06-26T12:25:24.924Z,9.71
2019-06-26T12:27:53.123Z,11.16
2019-06-26T12:30:20.554Z,12.25
2019-06-26T12:33:02.454Z,13.39
2019-06-26T12:35:16.933Z,15.33
2019-06-26T12:37:48.030Z,14.10
2019-06-26T12:40:15.824Z,12.68
2019-06-26T12:42:42.898Z,12.46
2019-06-26T12:45:12.374Z,17.90
2019-06-26T12:47:39.448Z,13.94
2019-06-26T12:50:07.659Z,12.28
2019-06-26T12:52:36.074Z,12.39
2019-06-26T12:55:03.553Z,11.75
2019-06-26T12:57:30.726Z,12.94
2019-06-26T12:59:59.752Z,12.12
2019-06-26T13:02:27.394Z,10.79
2019-06-26T13:04:55.614Z,9.98
2019-06-26T13:07:22.635Z,11.25
2019-06-26T13:09:49.826Z,15.83
2019-06-26T13:12:16.890Z,13.09
2019-06-26T13:14:44.043Z,10.64
2019-06-26T13:17:11.230Z,9.13
2019-06-26T13:19:38.295Z,8.10
2019-06-26T13:22:05.399Z,9.40
2019-06-26T13:24:32.493Z,10.53
2019-06-26T13:27:00.670Z,10.54
2019-06-26T13:29:29.956Z,11.07
2019-06-26T13:31:57.435Z,11.98
2019-06-26T13:34:26.309Z,10.99
2019-06-26T13:36:53.392Z,10.55
2019-06-26T13:39:20.498Z,8.98
2019-06-26T13:41:47.718Z,8.09
2019-06-26T13:44:15.739Z,9.25
2019-06-26T13:46:42.814Z,15.59
2019-06-26T13:49:16.413Z,12.30
2019-06-26T13:51:43.718Z,11.99
2019-06-26T13:54:11.535Z,17.80
2019-06-26T13:56:38.879Z,18.28
2019-06-26T13:59:07.533Z,15.18
2019-06-26T14:01:34.912Z,13.41
2019-06-26T14:04:04.924Z,13.02
2019-06-26T14:06:34.817Z,12.04
2019-06-26T14:09:05.814Z,13.07
2019-06-26T14:11:32.855Z,11.34
2019-06-26T14:13:59.974Z,10.85
2019-06-26T14:16:30.034Z,12.90
2019-06-26T14:19:00.091Z,14.68
2019-06-26T14:21:28.966Z,14.49
2019-06-26T14:23:57.307Z,15.50
2019-06-26T14:26:24.361Z,14.77
2019-06-26T14:28:53.919Z,12.05
2019-06-26T14:31:23.378Z,10.19
2019-06-26T14:33:54.050Z,10.95
2019-06-26T14:36:23.422Z,9.96
2019-06-26T14:38:51.800Z,10.54
2019-06-26T14:41:18.927Z,10.59
2019-06-26T14:43:48.023Z,14.68
2019-06-26T14:46:15.146Z,14.92
2019-06-26T14:48:48.645Z,12.84
2019-06-26T14:51:16.124Z,11.22
2019-06-26T14:53:45.978Z,9.76
2019-06-26T14:56:18.560Z,9.04
2019-06-26T14:58:47.718Z,10.01
2019-06-26T15:01:14.976Z,12.17
2019-06-26T15:03:42.353Z,17.82
2019-06-26T15:06:16.863Z,18.54
2019-06-26T15:08:48.240Z,14.81
2019-06-26T15:11:15.854Z,11.96
2019-06-26T15:13:43.131Z,10.66
2019-06-26T15:16:10.189Z,10.25
2019-06-26T15:18:38.348Z,11.03
2019-06-26T15:21:08.377Z,11.99
2019-06-26T15:23:37.081Z,11.98
2019-06-26T15:26:06.656Z,10.99
2019-06-26T15:28:41.480Z,9.72
2019-06-26T15:31:08.589Z,8.98
2019-06-26T15:33:41.179Z,9.83
2019-06-26T15:36:11.877Z,11.42
2019-06-26T15:38:41.055Z,11.08
2019-06-26T15:41:08.150Z,17.66
2019-06-26T15:43:35.240Z,19.35
2019-06-26T15:46:02.890Z,17.56
2019-06-26T15:48:31.895Z,13.88
2019-06-26T15:50:59.026Z,11.38
2019-06-26T15:53:53.226Z,10.31
2019-06-26T15:56:25.350Z,10.36
2019-06-26T15:58:53.517Z,10.04
2019-06-26T16:01:22.275Z,10.06
2019-06-26T16:03:51.151Z,10.74
2019-06-26T16:06:18.283Z,11.45
2019-06-26T16:08:45.383Z,11.63
2019-06-26T16:11:12.595Z,13.26
2019-06-26T16:13:41.486Z,13.28
2019-06-26T16:16:08.733Z,16.07
2019-06-26T16:18:43.539Z,15.16
2019-06-26T16:21:10.868Z,13.64
2019-06-26T16:23:41.333Z,12.34
2019-06-26T16:26:11.084Z,12.51
2019-06-26T16:28:40.228Z,13.51
2019-06-26T16:31:10.184Z,12.61
2019-06-26T16:33:37.595Z,11.58
2019-06-26T16:36:06.047Z,11.85
2019-06-26T16:38:34.713Z,11.38
2019-06-26T16:41:02.488Z,14.88
2019-06-26T16:43:29.823Z,17.33
2019-06-26T16:45:56.879Z,18.56
2019-06-26T16:48:24.415Z,20.73
2019-06-26T16:50:51.463Z,20.90
2019-06-26T16:53:18.561Z,19.55
2019-06-26T16:55:48.661Z,16.76
2019-06-26T16:58:15.695Z,15.57
2019-06-26T17:00:43.079Z,15.39
2019-06-26T17:03:10.339Z,15.80
2019-06-26T17:05:38.500Z,15.49
2019-06-26T17:08:09.966Z,16.74
2019-06-26T17:10:37.378Z,17.90
2019-06-26T17:13:04.424Z,19.67
2019-06-26T17:15:31.934Z,20.16
2019-06-26T17:18:00.218Z,19.55
2019-06-26T17:20:27.312Z,18.38
2019-06-26T17:23:05.234Z,18.88
2019-06-26T17:25:23.345Z,20.42
2019-06-26T17:27:51.200Z,20.14
2019-06-26T17:30:19.950Z,20.49
2019-06-26T17:32:50.493Z,21.83
2019-06-26T17:35:19.346Z,21.35
2019-06-26T17:37:49.211Z,21.20
2019-06-26T17:40:16.974Z,21.41
2019-06-26T17:42:44.041Z,22.64
2019-06-26T17:45:12.002Z,21.95
2019-06-26T17:47:42.336Z,23.54
2019-06-26T17:50:11.000Z,23.23
2019-06-26T17:52:38.790Z,25.21
2019-06-26T17:55:07.772Z,25.73
2019-06-26T17:57:34.914Z,25.83
2019-06-26T18:00:14.614Z,26.75
2019-06-26T18:02:42.020Z,28.90
2019-06-26T18:05:09.912Z,28.02
2019-06-26T18:07:39.488Z,27.06
2019-06-26T18:10:08.514Z,27.53
2019-06-26T18:12:35.677Z,27.92
2019-06-26T18:15:14.626Z,27.85
2019-06-26T18:17:42.941Z,28.16
2019-06-26T18:20:19.146Z,27.63
2019-06-26T18:26:43.224Z,28.65
2019-06-26T18:29:15.711Z,30.05
2019-06-26T18:31:51.351Z,31.62
2019-06-26T18:34:24.542Z,31.69
2019-06-26T18:36:51.686Z,32.98
2019-06-26T18:39:20.590Z,34.03
2019-06-26T18:41:49.220Z,34.63
2019-06-26T18:44:16.301Z,34.66
2019-06-26T18:46:43.425Z,35.49
2019-06-26T18:49:10.499Z,35.73
2019-06-26T18:51:37.604Z,36.80
2019-06-26T18:54:05.046Z,37.78
2019-06-26T18:56:32.156Z,38.27
2019-06-26T18:58:59.192Z,39.16
2019-06-26T19:01:28.098Z,39.87
2019-06-26T19:03:55.166Z,40.33
2019-06-26T19:06:22.344Z,41.13
2019-06-26T19:08:49.420Z,41.68
2019-06-26T19:11:17.080Z,42.08
2019-06-26T19:13:50.074Z,42.40
2019-06-26T19:16:17.035Z,42.87
2019-06-26T19:18:44.487Z,43.09
2019-06-26T19:21:11.813Z,43.49
2019-06-26T19:23:38.925Z,43.68
2019-06-26T19:26:06.306Z,44.01
2019-06-26T19:28:33.820Z,44.33
2019-06-26T19:31:00.941Z,44.62
2019-06-26T19:33:28.078Z,44.43
2019-06-26T19:35:59.467Z,44.55
2019-06-26T19:38:28.684Z,44.67
2019-06-26T19:40:56.061Z,44.82
2019-06-26T19:43:23.143Z,44.78
2019-06-26T19:45:50.304Z,45.02
2019-06-26T19:48:17.417Z,45.12
2019-06-26T19:50:44.624Z,45.34
2019-06-26T19:53:12.887Z,45.45
2019-06-26T19:55:49.713Z,45.71
2019-06-26T19:58:21.637Z,45.61
2019-06-26T20:01:12.259Z,45.81
2019-06-26T20:04:02.265Z,45.81
2019-06-26T20:06:48.447Z,45.82
2019-06-26T20:09:22.522Z,46.05
2019-06-26T20:11:58.732Z,45.76
2019-06-26T20:14:39.266Z,45.59
2019-06-26T20:17:24.375Z,46.59
2019-06-26T20:19:54.267Z,46.84
2019-06-26T20:22:22.806Z,47.16
2019-06-26T20:24:53.179Z,47.00
2019-06-26T20:27:23.111Z,47.36
2019-06-26T20:30:02.330Z,46.36
2019-06-26T20:32:33.356Z,45.79
2019-06-26T20:35:01.143Z,45.98
2019-06-26T20:37:42.725Z,45.32
2019-06-26T20:40:21.863Z,45.23
2019-06-26T20:42:58.438Z,45.46
2019-06-26T20:45:32.251Z,45.38
2019-06-26T20:47:59.602Z,45.34
2019-06-26T20:50:31.213Z,45.52
2019-06-26T20:53:28.074Z,45.54
2019-06-26T20:56:07.382Z,45.86
2019-06-26T20:58:36.379Z,45.95
2019-06-26T21:01:03.851Z,46.09
2019-06-26T21:03:31.209Z,46.39
2019-06-26T21:05:58.338Z,46.70
2019-06-26T21:08:29.207Z,47.11
2019-06-26T21:10:56.932Z,47.49
2019-06-26T21:13:24.041Z,47.63
2019-06-26T21:15:53.027Z,47.99
2019-06-26T21:18:20.456Z,48.30
2019-06-26T21:20:47.524Z,48.52
2019-06-26T21:23:18.787Z,48.72
2019-06-26T21:25:46.130Z,49.09
2019-06-26T21:28:14.962Z,48.59
2019-06-26T21:30:45.477Z,48.78
2019-06-26T21:33:12.619Z,48.57
2019-06-26T21:35:39.724Z,48.81
2019-06-26T21:38:06.770Z,48.90
2019-06-26T21:40:33.852Z,48.54
2019-06-26T21:43:01.002Z,48.16
2019-06-26T21:45:28.283Z,48.16
2019-06-26T21:47:55.375Z,48.65
2019-06-26T21:50:22.424Z,48.51
2019-06-26T21:52:49.799Z,48.67
2019-06-26T21:55:33.360Z,48.84
2019-06-26T21:58:07.566Z,48.70
2019-06-26T22:00:54.045Z,48.79
2019-06-26T22:03:39.983Z,48.82
2019-06-26T22:06:17.893Z,49.25
2019-06-26T22:08:46.973Z,49.52
2019-06-26T22:11:16.049Z,49.47
2019-06-26T22:13:43.224Z,49.47
2019-06-26T22:16:13.005Z,49.62
2019-06-26T22:18:40.428Z,49.48
2019-06-26T22:21:07.496Z,49.59
2019-06-26T22:23:34.588Z,49.88
2019-06-26T22:26:01.686Z,49.86
2019-06-26T22:28:28.763Z,50.08
2019-06-26T22:30:56.028Z,50.31
2019-06-26T22:33:23.157Z,50.50
2019-06-26T22:35:50.591Z,50.56
2019-06-26T22:38:17.727Z,51.16
2019-06-26T22:40:46.587Z,51.29
2019-06-26T22:43:15.315Z,51.51
2019-06-26T22:45:42.377Z,51.62
2019-06-26T22:48:09.414Z,51.66
2019-06-26T22:50:36.505Z,52.10
2019-06-26T22:53:03.831Z,52.25
2019-06-26T22:55:31.002Z,52.67
2019-06-26T22:57:58.185Z,52.63
2019-06-26T23:00:25.230Z,53.14
2019-06-26T23:02:52.282Z,53.38
2019-06-26T23:05:19.400Z,53.66
2019-06-26T23:07:46.489Z,53.91
2019-06-26T23:10:14.048Z,54.10
2019-06-26T23:12:41.133Z,54.38
2019-06-26T23:15:10.307Z,54.16
2019-06-26T23:17:37.334Z,54.50
2019-06-26T23:20:06.336Z,54.75
2019-06-26T23:22:33.561Z,55.06
2019-06-26T23:25:00.618Z,55.34
2019-06-26T23:27:27.679Z,55.55
2019-06-26T23:29:54.756Z,55.66
2019-06-26T23:32:21.797Z,55.88
2019-06-26T23:34:48.865Z,56.28
2019-06-26T23:37:15.942Z,56.42
2019-06-26T23:39:45.381Z,56.72
2019-06-26T23:42:12.753Z,56.93
2019-06-26T23:44:39.803Z,57.01
2019-06-26T23:47:06.879Z,57.16
2019-06-26T23:49:35.148Z,57.21
2019-06-26T23:52:02.256Z,57.91
2019-06-26T23:54:29.307Z,58.00
2019-06-26T23:56:56.327Z,58.17
2019-06-26T23:59:23.419Z,58.34
